sensor_id;sensor_type;location;lat;lon;timestamp;temperature;humidity
37322;DHT22;23697;48.684;9.032;2023-05-21T07:17:39;16.40;83.60
37322;DHT22;23697;48.684;9.032;2023-05-21T07:20:13;16.50;83.40
37322;DHT22;23697;48.684;9.032;2023-05-21T07:22:44;16.60;82.30
37322;DHT22;23697;48.684;9.032;2023-05-21T08:46:32;20.60;67.20
37322;DHT22;23697;48.684;9.032;2023-05-21T08:51:57;21.40;63.90
37322;DHT22;23697;48.684;9.032;2023-05-21T11:19:43;24.00;56.40
37322;DHT22;23697;48.684;9.032;2023-05-21T11:22:20;24.00;55.80
37322;DHT22;23697;48.684;9.032;2023-05-21T11:24:47;23.80;55.20
37322;DHT22;23697;48.684;9.032;2023-05-21T11:27:29;23.80;56.40
37322;DHT22;23697;48.684;9.032;2023-05-21T11:30:04;23.90;55.10
37322;DHT22;23697;48.684;9.032;2023-05-21T11:32:35;23.70;56.00
37322;DHT22;23697;48.684;9.032;2023-05-21T11:35:03;23.80;58.20
37322;DHT22;23697;48.684;9.032;2023-05-21T11:37:31;24.10;56.20
37322;DHT22;23697;48.684;9.032;2023-05-21T11:42:47;23.90;54.90
37322;DHT22;23697;48.684;9.032;2023-05-21T11:45:15;23.80;55.40
37322;DHT22;23697;48.684;9.032;2023-05-21T11:47:42;23.60;54.50
37322;DHT22;23697;48.684;9.032;2023-05-21T11:50:12;23.60;54.60
37322;DHT22;23697;48.684;9.032;2023-05-21T11:52:39;23.90;53.50
37322;DHT22;23697;48.684;9.032;2023-05-21T11:55:06;24.00;54.40
37322;DHT22;23697;48.684;9.032;2023-05-21T11:57:33;24.10;53.80
37322;DHT22;23697;48.684;9.032;2023-05-21T12:00:00;24.10;51.90
37322;DHT22;23697;48.684;9.032;2023-05-21T12:02:34;24.30;52.10
37322;DHT22;23697;48.684;9.032;2023-05-21T12:05:01;24.50;52.40
37322;DHT22;23697;48.684;9.032;2023-05-21T12:07:29;24.40;52.80
37322;DHT22;23697;48.684;9.032;2023-05-21T12:09:56;24.30;52.00
37322;DHT22;23697;48.684;9.032;2023-05-21T12:12:24;24.10;51.40
37322;DHT22;23697;48.684;9.032;2023-05-21T12:14:51;24.00;53.00
37322;DHT22;23697;48.684;9.032;2023-05-21T12:17:18;23.90;51.70
37322;DHT22;23697;48.684;9.032;2023-05-21T12:19:46;24.00;52.20
37322;DHT22;23697;48.684;9.032;2023-05-21T12:22:13;23.90;51.70
37322;DHT22;23697;48.684;9.032;2023-05-21T12:24:42;23.80;54.00
37322;DHT22;23697;48.684;9.032;2023-05-21T17:49:04;22.70;44.60
37322;DHT22;23697;48.684;9.032;2023-05-21T17:51:42;22.70;44.90
37322;DHT22;23697;48.684;9.032;2023-05-21T18:00:32;22.50;46.70
37322;DHT22;23697;48.684;9.032;2023-05-21T18:03:12;22.40;46.20
37322;DHT22;23697;48.684;9.032;2023-05-21T18:05:42;22.40;46.70
37322;DHT22;23697;48.684;9.032;2023-05-21T18:08:08;22.40;50.30
37322;DHT22;23697;48.684;9.032;2023-05-21T18:10:35;22.20;48.40
37322;DHT22;23697;48.684;9.032;2023-05-21T18:13:19;22.20;49.90
37322;DHT22;23697;48.684;9.032;2023-05-21T18:15:46;22.20;52.20
37322;DHT22;23697;48.684;9.032;2023-05-21T18:21:44;22.10;52.00
37322;DHT22;23697;48.684;9.032;2023-05-21T18:24:11;21.90;53.10
